Time;durP1;ratioP1;P1;durP2;ratioP2;P2;SDS_P1;SDS_P2;PMS_P1;PMS_P2;Temp;Humidity;BMP_temperature;BMP_pressure;BME280_temperature;BME280_humidity;BME280_pressure;Samples;Min_cycle;Max_cycle;Signal;HPM_P1;HPM_P2
2022/05/22 00:02:09;;;;;;;0.60;0.10;;;19.20;99.90;;;;;;5075244;28;20514;-72
2022/05/22 00:04:37;;;;;;;0.60;0.10;;;19.10;99.90;;;;;;5075649;28;20537;-71
2022/05/22 00:07:06;;;;;;;0.60;0.20;;;19.20;99.90;;;;;;5074505;28;20507;-71
2022/05/22 00:09:35;;;;;;;0.60;0.10;;;19.20;99.90;;;;;;5074551;28;20484;-71
2022/05/22 00:12:04;;;;;;;0.60;0.10;;;19.10;99.90;;;;;;5072714;28;20575;-72
2022/05/22 00:14:32;;;;;;;0.60;0.10;;;19.10;99.90;;;;;;5072285;28;20448;-72
2022/05/22 00:17:00;;;;;;;0.60;0.20;;;19.10;99.90;;;;;;5072322;28;20507;-73
2022/05/22 00:19:32;;;;;;;0.60;0.10;;;19.00;99.90;;;;;;5072789;28;20450;-72
2022/05/22 00:22:01;;;;;;;0.60;0.10;;;19.00;99.90;;;;;;5072995;28;20452;-72
2022/05/22 00:24:30;;;;;;;0.60;0.20;;;18.90;99.90;;;;;;5074687;28;20441;-72
2022/05/22 00:27:00;;;;;;;0.60;0.10;;;18.80;99.90;;;;;;5079062;28;20441;-72
2022/05/22 00:29:28;;;;;;;0.60;0.10;;;18.70;99.90;;;;;;5094779;28;20443;-72
2022/05/22 00:31:56;;;;;;;0.60;0.10;;;18.60;99.90;;;;;;5094437;28;20837;-72
2022/05/22 00:34:24;;;;;;;0.60;0.10;;;18.70;99.90;;;;;;5092691;28;20965;-71
2022/05/22 00:36:54;;;;;;;0.60;0.10;;;18.70;99.90;;;;;;5092677;28;20479;-72
2022/05/22 00:39:21;;;;;;;0.60;0.10;;;18.80;99.90;;;;;;5093541;28;20457;-72
2022/05/22 00:41:53;;;;;;;0.60;0.10;;;18.80;99.90;;;;;;5093967;28;20450;-71
2022/05/22 00:44:21;;;;;;;0.60;0.10;;;18.60;99.90;;;;;;5093645;28;21385;-71
2022/05/22 00:46:50;;;;;;;0.60;0.20;;;18.50;99.90;;;;;;5092929;28;20497;-72
2022/05/22 00:49:23;;;;;;;0.60;0.17;;;18.30;99.90;;;;;;5092515;28;20467;-72
2022/05/22 00:51:55;;;;;;;0.60;0.10;;;18.20;99.90;;;;;;5092366;28;20942;-71
2022/05/22 00:54:27;;;;;;;0.60;0.10;;;18.20;99.90;;;;;;5092044;28;20444;-72
2022/05/22 00:56:59;;;;;;;0.60;0.10;;;18.00;99.90;;;;;;5083586;28;20437;-71
2022/05/22 00:59:32;;;;;;;0.70;0.20;;;17.80;99.90;;;;;;5091668;28;20471;-72
2022/05/22 01:02:02;;;;;;;0.60;0.20;;;17.80;99.90;;;;;;5091935;28;20441;-72
2022/05/22 01:04:32;;;;;;;0.60;0.20;;;17.80;99.90;;;;;;5091336;28;20618;-72
2022/05/22 01:07:06;;;;;;;0.60;0.15;;;17.90;99.90;;;;;;5091273;28;20518;-72
2022/05/22 01:09:34;;;;;;;0.60;0.20;;;17.70;99.90;;;;;;5091155;28;20230;-71
2022/05/22 01:12:04;;;;;;;0.60;0.10;;;;;;;;;;5091605;28;20441;-71
2022/05/22 01:14:33;;;;;;;0.60;0.10;;;17.70;99.90;;;;;;5091435;28;20930;-71
2022/05/22 01:17:03;;;;;;;0.60;0.10;;;17.60;99.90;;;;;;5091333;28;20451;-71
2022/05/22 01:19:31;;;;;;;0.60;0.20;;;17.60;99.90;;;;;;5091527;28;20809;-72
2022/05/22 01:22:05;;;;;;;0.60;0.10;;;17.60;99.90;;;;;;5091593;28;20448;-71
2022/05/22 01:24:33;;;;;;;0.60;0.10;;;17.60;99.90;;;;;;5091059;28;20451;-71
2022/05/22 01:27:06;;;;;;;0.60;0.10;;;17.60;99.90;;;;;;5090562;28;20445;-71
2022/05/22 01:29:38;;;;;;;0.60;0.10;;;17.70;99.90;;;;;;5090861;28;20467;-71
2022/05/22 01:32:07;;;;;;;0.60;0.10;;;17.70;99.90;;;;;;5092661;28;20460;-72
2022/05/22 01:34:35;;;;;;;0.60;0.20;;;17.70;99.90;;;;;;5094871;28;20938;-71
2022/05/22 01:37:04;;;;;;;0.70;0.40;;;17.80;99.90;;;;;;5094714;28;20440;-71
2022/05/22 01:39:32;;;;;;;0.60;0.10;;;17.80;99.90;;;;;;5095047;28;20491;-71
2022/05/22 01:42:00;;;;;;;0.60;0.10;;;17.70;99.90;;;;;;5095007;28;20485;-71
2022/05/22 01:44:28;;;;;;;0.70;0.30;;;17.70;99.90;;;;;;5095174;28;20459;-70
2022/05/22 01:46:55;;;;;;;0.60;0.10;;;17.40;99.90;;;;;;5094865;28;20451;-71
2022/05/22 01:49:23;;;;;;;0.60;0.10;;;17.40;99.90;;;;;;5095566;28;20487;-71
2022/05/22 01:51:51;;;;;;;0.60;0.10;;;17.40;99.90;;;;;;5095399;28;20444;-71
2022/05/22 01:54:20;;;;;;;0.60;0.10;;;17.40;99.90;;;;;;5095084;28;20491;-71
2022/05/22 01:56:48;;;;;;;0.60;0.20;;;17.30;99.90;;;;;;5094969;28;20482;-71
2022/05/22 01:59:16;;;;;;;0.60;0.10;;;17.30;1.00;;;;;;5094898;28;20455;-71
2022/05/22 02:01:44;;;;;;;0.60;0.10;;;17.30;1.00;;;;;;5095108;28;20440;-71
2022/05/22 02:04:12;;;;;;;0.60;0.20;;;17.40;1.00;;;;;;5094902;28;20437;-71
2022/05/22 02:08:19;;;;;;;0.60;0.20;;;17.40;99.90;;;;;;5094905;28;20452;-71
2022/05/22 02:09:29;;;;;;;0.60;0.10;;;17.50;99.90;;;;;;5095297;28;20447;-70
2022/05/22 02:11:57;;;;;;;0.60;0.10;;;17.50;1.00;;;;;;5095247;28;20818;-71
2022/05/22 02:14:25;;;;;;;0.60;0.20;;;17.50;1.00;;;;;;5094296;28;20479;-71
2022/05/22 02:16:52;;;;;;;1.37;1.27;;;17.50;1.00;;;;;;5094604;28;20441;-71
2022/05/22 02:19:20;;;;;;;0.60;0.10;;;17.60;1.00;;;;;;5095029;28;20947;-71
2022/05/22 02:21:48;;;;;;;0.60;0.17;;;17.60;1.00;;;;;;5095208;28;20449;-71
2022/05/22 02:24:16;;;;;;;0.60;0.20;;;17.60;99.90;;;;;;5094567;28;20441;-71
2022/05/22 02:26:45;;;;;;;0.60;0.10;;;17.60;99.90;;;;;;5100365;28;21132;-72
2022/05/22 02:29:13;;;;;;;0.60;0.10;;;17.40;99.90;;;;;;5092268;28;20536;-71
2022/05/22 02:31:41;;;;;;;0.60;0.10;;;17.40;99.90;;;;;;5093521;28;20854;-71
2022/05/22 02:34:09;;;;;;;0.60;0.17;;;17.40;1.00;;;;;;5093706;28;20907;-71
2022/05/22 02:36:36;;;;;;;0.60;0.20;;;17.50;1.00;;;;;;5092769;28;20451;-72
2022/05/22 02:39:04;;;;;;;0.60;0.20;;;17.50;1.00;;;;;;5093273;28;20445;-71
2022/05/22 02:41:32;;;;;;;0.60;0.10;;;17.60;99.90;;;;;;5093179;28;20559;-70
2022/05/22 02:44:02;;;;;;;0.60;0.20;;;17.50;99.90;;;;;;5092874;28;20877;-71
2022/05/22 02:46:30;;;;;;;0.60;0.30;;;17.50;99.90;;;;;;5093611;28;20548;-71
2022/05/22 02:48:58;;;;;;;0.60;0.10;;;;;;;;;;5093806;28;21062;-71
2022/05/22 02:51:26;;;;;;;0.60;0.10;;;17.30;99.90;;;;;;5093709;28;20460;-71
2022/05/22 02:53:54;;;;;;;0.60;0.20;;;17.10;1.00;;;;;;5093595;28;20487;-70
2022/05/22 02:56:24;;;;;;;0.60;0.20;;;17.10;1.00;;;;;;5092836;28;20429;-72
2022/05/22 02:58:52;;;;;;;0.60;0.10;;;17.00;1.00;;;;;;5093641;28;20564;-71
2022/05/22 03:01:21;;;;;;;0.60;0.10;;;16.90;1.00;;;;;;5093572;28;20468;-72
2022/05/22 03:03:49;;;;;;;0.60;0.10;;;16.90;1.00;;;;;;5093428;28;20448;-71
2022/05/22 03:09:03;;;;;;;0.60;0.20;;;17.00;1.00;;;;;;5093465;28;20464;-72
2022/05/22 03:11:31;;;;;;;0.60;0.10;;;17.10;1.00;;;;;;5093310;28;20472;-70
2022/05/22 03:14:01;;;;;;;0.60;0.20;;;17.10;1.00;;;;;;5093097;28;20488;-70
2022/05/22 03:16:30;;;;;;;0.60;0.10;;;17.10;1.00;;;;;;5094558;28;20441;-71
2022/05/22 03:18:59;;;;;;;0.93;0.63;;;16.90;1.00;;;;;;5096109;28;20451;-71
2022/05/22 03:21:27;;;;;;;0.70;0.40;;;16.90;1.00;;;;;;5095364;28;20975;-70
2022/05/22 03:23:55;;;;;;;0.60;0.10;;;17.40;1.00;;;;;;5093337;28;20453;-70
2022/05/22 03:26:23;;;;;;;0.60;0.10;;;16.70;1.00;;;;;;5089458;28;20465;-71
2022/05/22 03:28:51;;;;;;;0.60;0.10;;;16.70;1.00;;;;;;5085280;28;20938;-71
2022/05/22 03:31:19;;;;;;;0.60;0.10;;;16.70;1.00;;;;;;5092080;28;20838;-70
2022/05/22 03:33:48;;;;;;;0.60;0.20;;;;;;;;;;5084583;28;20482;-70
2022/05/22 03:36:16;;;;;;;0.60;0.10;;;16.70;1.00;;;;;;5092019;28;20935;-71
2022/05/22 03:38:44;;;;;;;0.60;0.20;;;16.60;1.00;;;;;;5092721;28;20788;-71
2022/05/22 03:41:12;;;;;;;0.60;0.10;;;16.60;1.00;;;;;;5092844;28;20815;-71
2022/05/22 03:43:40;;;;;;;0.60;0.10;;;16.50;1.00;;;;;;5092499;28;20445;-71
2022/05/22 03:46:08;;;;;;;7.83;2.93;;;16.50;1.00;;;;;;5092012;28;20449;-70
2022/05/22 03:48:36;;;;;;;0.60;0.10;;;16.40;1.00;;;;;;5092420;28;20445;-71
2022/05/22 03:51:05;;;;;;;0.60;0.10;;;16.50;1.00;;;;;;5092728;28;20472;-71
2022/05/22 03:53:33;;;;;;;0.60;0.10;;;16.60;1.00;;;;;;5092799;28;20450;-71
2022/05/22 03:56:10;;;;;;;0.60;0.10;;;16.80;1.00;;;;;;5092424;28;20444;-71
2022/05/22 03:58:38;;;;;;;0.60;0.10;;;17.00;1.00;;;;;;5092850;28;20451;-70
2022/05/22 04:01:06;;;;;;;0.60;0.10;;;17.10;1.00;;;;;;5092511;28;20551;-71
2022/05/22 04:03:35;;;;;;;0.60;0.10;;;17.10;1.00;;;;;;5092808;28;20451;-72
2022/05/22 04:06:06;;;;;;;0.60;0.10;;;17.10;1.00;;;;;;5094216;28;20498;-72
2022/05/22 04:08:34;;;;;;;0.60;0.10;;;17.20;1.00;;;;;;5094958;28;20454;-72
2022/05/22 04:11:07;;;;;;;0.60;0.10;;;17.20;1.00;;;;;;5094177;28;20472;-70
2022/05/22 04:13:36;;;;;;;0.60;0.10;;;17.10;1.00;;;;;;5093904;28;20441;-71
2022/05/22 04:16:04;;;;;;;0.60;0.10;;;17.10;1.00;;;;;;5092192;28;20440;-70
2022/05/22 04:18:33;;;;;;;0.60;0.10;;;17.20;1.00;;;;;;5092595;28;20441;-70
2022/05/22 04:21:01;;;;;;;0.60;0.10;;;17.40;1.00;;;;;;5092428;28;20853;-70
2022/05/22 04:26:16;;;;;;;0.60;0.10;;;17.60;1.00;;;;;;5089129;28;20955;-70
2022/05/22 04:28:44;;;;;;;3.10;3.00;;;17.60;99.90;;;;;;5092286;28;20440;-71
2022/05/22 04:31:12;;;;;;;0.60;0.20;;;17.60;99.90;;;;;;5092220;28;20471;-71
2022/05/22 04:33:41;;;;;;;0.60;0.10;;;;;;;;;;5092560;28;21074;-71
2022/05/22 04:36:08;;;;;;;0.60;0.10;;;17.60;99.90;;;;;;5091377;28;20472;-71
2022/05/22 04:38:37;;;;;;;0.60;0.20;;;17.50;99.90;;;;;;5091605;28;20476;-71
2022/05/22 04:41:05;;;;;;;0.60;0.10;;;17.40;99.90;;;;;;5091926;28;20465;-70
2022/05/22 04:43:33;;;;;;;0.60;0.20;;;17.30;99.90;;;;;;5091922;28;20821;-71
2022/05/22 04:46:05;;;;;;;0.60;0.10;;;17.30;1.00;;;;;;5091133;28;20450;-72
2022/05/22 04:48:33;;;;;;;0.60;0.20;;;17.30;1.00;;;;;;5091570;28;20440;-70
2022/05/22 04:51:01;;;;;;;0.60;0.10;;;17.20;1.00;;;;;;5091581;28;20473;-71
2022/05/22 04:53:29;;;;;;;0.60;0.10;;;17.20;1.00;;;;;;5092000;28;20705;-70
2022/05/22 04:55:59;;;;;;;0.60;0.20;;;17.20;1.00;;;;;;5091454;28;20819;-71
2022/05/22 04:58:27;;;;;;;0.60;0.10;;;17.20;1.00;;;;;;5091258;28;20431;-71
2022/05/22 05:00:55;;;;;;;0.60;0.20;;;17.30;1.00;;;;;;5091876;28;20487;-71
2022/05/22 05:03:23;;;;;;;0.60;0.20;;;17.20;1.00;;;;;;5091432;28;20456;-71
2022/05/22 05:05:57;;;;;;;0.60;0.10;;;17.20;1.00;;;;;;5091719;28;20444;-71
2022/05/22 05:08:26;;;;;;;0.60;0.10;;;17.20;1.00;;;;;;5091069;28;20531;-71
2022/05/22 05:10:54;;;;;;;0.60;0.20;;;17.20;1.00;;;;;;5091516;28;20461;-70
2022/05/22 05:13:25;;;;;;;0.60;0.10;;;17.20;1.00;;;;;;5091767;28;20464;-71
2022/05/22 05:16:01;;;;;;;0.60;0.10;;;17.20;1.00;;;;;;5090760;28;20477;-71
2022/05/22 05:18:29;;;;;;;0.60;0.10;;;17.40;1.00;;;;;;5090891;28;20459;-71
2022/05/22 05:21:00;;;;;;;0.60;0.13;;;17.50;1.00;;;;;;5091345;28;20226;-71
2022/05/22 05:23:28;;;;;;;0.60;0.10;;;17.50;99.90;;;;;;5090713;28;20436;-71
2022/05/22 05:25:56;;;;;;;0.70;0.20;;;17.50;99.90;;;;;;5090779;28;20466;-71
2022/05/22 05:28:25;;;;;;;0.60;0.10;;;17.50;99.90;;;;;;5090647;28;20452;-71
2022/05/22 05:30:53;;;;;;;0.83;0.37;;;17.40;99.90;;;;;;5091189;28;20471;-70
2022/05/22 05:33:21;;;;;;;0.60;0.10;;;17.30;99.90;;;;;;5086749;28;20479;-70
2022/05/22 05:35:50;;;;;;;0.60;0.10;;;17.20;99.90;;;;;;5083341;28;20481;-71
2022/05/22 05:38:18;;;;;;;0.60;0.13;;;17.20;99.90;;;;;;5087006;28;20585;-71
2022/05/22 05:41:06;;;;;;;0.60;0.10;;;17.20;99.90;;;;;;5091341;28;20575;-71
2022/05/22 05:43:35;;;;;;;0.60;0.10;;;17.30;1.00;;;;;;5091420;28;20822;-71
2022/05/22 05:46:04;;;;;;;0.60;0.10;;;17.40;99.90;;;;;;5091261;28;20538;-70
2022/05/22 05:48:41;;;;;;;0.60;0.20;;;17.50;99.90;;;;;;5089262;28;20554;-70
2022/05/22 05:51:09;;;;;;;0.60;0.10;;;17.60;99.90;;;;;;5089213;28;20472;-71
2022/05/22 05:53:36;;;;;;;0.60;0.10;;;17.70;99.90;;;;;;5091262;28;20455;-72
2022/05/22 05:56:05;;;;;;;0.60;0.10;;;17.80;99.90;;;;;;5091117;28;20987;-70
2022/05/22 05:58:46;;;;;;;0.80;0.60;;;17.80;99.90;;;;;;5083080;28;20456;-71
2022/05/22 06:01:15;;;;;;;0.60;0.13;;;17.80;99.90;;;;;;5078994;28;20465;-73
2022/05/22 06:03:44;;;;;;;0.60;0.20;;;17.80;99.90;;;;;;5090767;28;20475;-74
2022/05/22 06:06:14;;;;;;;0.60;0.10;;;17.90;99.90;;;;;;5085061;28;20453;-75
2022/05/22 06:08:42;;;;;;;0.60;0.10;;;17.90;99.90;;;;;;5084418;28;20452;-74
2022/05/22 06:11:10;;;;;;;0.60;0.10;;;18.00;99.90;;;;;;5091669;28;20461;-74
2022/05/22 06:13:39;;;;;;;0.60;0.10;;;18.00;99.90;;;;;;5089916;28;20481;-74
2022/05/22 06:16:09;;;;;;;0.60;0.10;;;18.00;99.90;;;;;;5090887;28;20476;-74
2022/05/22 06:18:37;;;;;;;0.60;0.10;;;18.00;99.90;;;;;;5091650;28;20491;-74
2022/05/22 06:21:10;;;;;;;0.60;0.17;;;18.00;99.90;;;;;;5093675;28;20977;-73
2022/05/22 06:23:38;;;;;;;0.60;0.10;;;18.00;99.90;;;;;;5094937;28;20528;-73
2022/05/22 06:26:07;;;;;;;0.60;0.10;;;18.10;99.90;;;;;;5093260;28;20960;-73
2022/05/22 06:28:35;;;;;;;0.60;0.10;;;18.10;99.90;;;;;;5084502;28;20453;-73
2022/05/22 06:31:04;;;;;;;0.60;0.10;;;18.10;99.90;;;;;;5094802;28;20506;-73
2022/05/22 06:33:34;;;;;;;0.60;0.10;;;18.10;99.90;;;;;;5094619;28;20478;-76
2022/05/22 06:36:08;;;;;;;0.60;0.20;;;18.10;99.90;;;;;;5094714;28;20498;-73
2022/05/22 06:41:22;;;;;;;0.60;0.10;;;18.20;99.90;;;;;;5091950;28;20455;-73
2022/05/22 06:43:51;;;;;;;0.60;0.10;;;18.30;99.90;;;;;;5087154;28;20432;-73
2022/05/22 06:46:20;;;;;;;0.60;0.20;;;18.30;99.90;;;;;;5092609;28;20448;-73
2022/05/22 06:48:49;;;;;;;0.60;0.10;;;18.50;99.90;;;;;;5066371;28;20439;-73
2022/05/22 06:51:17;;;;;;;0.60;0.10;;;18.60;99.90;;;;;;5077086;28;20476;-74
2022/05/22 06:53:45;;;;;;;0.60;0.30;;;18.70;99.90;;;;;;5085950;28;20450;-74
2022/05/22 06:56:13;;;;;;;0.60;0.10;;;18.80;99.90;;;;;;5086369;28;20472;-73
2022/05/22 06:58:40;;;;;;;0.60;0.17;;;18.80;99.90;;;;;;5090692;28;20441;-73
2022/05/22 07:01:08;;;;;;;0.60;0.20;;;19.00;99.90;;;;;;5079022;28;20488;-73
2022/05/22 07:03:41;;;;;;;0.60;0.10;;;19.00;99.90;;;;;;5090599;28;20452;-73
2022/05/22 07:06:10;;;;;;;0.60;0.10;;;19.00;99.90;;;;;;5089572;28;20880;-72
2022/05/22 07:08:38;;;;;;;0.60;0.10;;;19.10;99.90;;;;;;5087510;28;20521;-74
2022/05/22 07:13:52;;;;;;;0.60;0.10;;;19.30;99.90;;;;;;5099526;28;20554;-71
2022/05/22 07:16:20;;;;;;;0.60;0.20;;;19.30;99.90;;;;;;5095706;28;20474;-72
2022/05/22 07:18:53;;;;;;;0.60;0.10;;;19.30;99.90;;;;;;5096746;28;20532;-72
2022/05/22 07:21:22;;;;;;;0.60;0.10;;;19.40;99.90;;;;;;5106025;28;20479;-72
2022/05/22 07:23:50;;;;;;;0.70;0.10;;;19.40;99.90;;;;;;5092825;28;20460;-72
2022/05/22 07:26:19;;;;;;;0.60;0.10;;;19.40;99.90;;;;;;5092394;28;20463;-72
2022/05/22 07:28:47;;;;;;;1.07;0.97;;;;;;;;;;5088978;28;20457;-72
2022/05/22 07:31:15;;;;;;;0.60;0.17;;;19.50;99.90;;;;;;5090081;28;20468;-72
2022/05/22 07:33:44;;;;;;;0.60;0.10;;;19.50;99.90;;;;;;5087567;28;20522;-72
2022/05/22 07:36:12;;;;;;;0.60;0.20;;;19.50;99.90;;;;;;5100019;28;20475;-71
2022/05/22 07:38:41;;;;;;;0.60;0.10;;;19.50;99.90;;;;;;5093653;28;21011;-72
2022/05/22 07:41:09;;;;;;;0.60;0.10;;;19.70;99.90;;;;;;5099478;28;20491;-76
2022/05/22 07:43:57;;;;;;;0.60;0.10;;;19.70;99.90;;;;;;5092392;28;20428;-74
2022/05/22 07:46:26;;;;;;;0.70;0.20;;;19.70;99.90;;;;;;5085112;28;20491;-73
2022/05/22 07:48:54;;;;;;;0.60;0.10;;;19.70;99.90;;;;;;5091437;28;20475;-71
2022/05/22 07:51:22;;;;;;;0.60;0.13;;;19.70;99.90;;;;;;5077631;28;20572;-74
2022/05/22 07:53:52;;;;;;;0.60;0.20;;;19.80;99.90;;;;;;5084118;28;20451;-73
2022/05/22 07:56:22;;;;;;;0.60;0.10;;;19.80;99.90;;;;;;5087319;28;20511;-74
2022/05/22 07:58:51;;;;;;;0.60;0.10;;;19.80;99.90;;;;;;5099550;28;20528;-75
2022/05/22 08:01:19;;;;;;;0.60;0.17;;;20.00;99.90;;;;;;5093050;28;20547;-73
2022/05/22 08:03:47;;;;;;;0.63;0.20;;;20.00;99.90;;;;;;5092262;28;20573;-76
2022/05/22 08:06:15;;;;;;;0.70;0.10;;;20.10;99.90;;;;;;5091887;28;20445;-74
2022/05/22 08:08:44;;;;;;;0.70;0.20;;;20.10;99.90;;;;;;5092854;28;20803;-75
2022/05/22 08:11:13;;;;;;;0.70;0.10;;;;;;;;;;5087112;28;20491;-73
2022/05/22 08:13:41;;;;;;;0.60;0.10;;;20.20;99.90;;;;;;5089088;28;20457;-74
2022/05/22 08:16:09;;;;;;;0.60;0.10;;;20.20;99.90;;;;;;5089314;28;20492;-73
2022/05/22 08:18:37;;;;;;;0.70;0.10;;;20.20;99.90;;;;;;5090943;28;20441;-73
2022/05/22 08:21:06;;;;;;;0.70;0.10;;;20.20;99.90;;;;;;5092084;28;20461;-73
2022/05/22 08:23:34;;;;;;;0.70;0.20;;;20.20;99.90;;;;;;5101957;28;20440;-75
2022/05/22 08:26:03;;;;;;;0.67;0.20;;;;;;;;;;5112125;28;20505;-74
2022/05/22 08:28:32;;;;;;;0.67;0.17;;;20.20;99.90;;;;;;5092970;28;20445;-74
2022/05/22 08:31:00;;;;;;;0.70;0.10;;;;;;;;;;5105440;22;20506;-78
2022/05/22 08:33:28;;;;;;;0.70;0.10;;;20.30;99.90;;;;;;5087274;28;20457;-78
2022/05/22 08:35:56;;;;;;;0.70;0.10;;;20.20;99.90;;;;;;5083589;28;20463;-77
2022/05/22 08:38:24;;;;;;;0.70;0.10;;;20.20;99.90;;;;;;5083702;28;20452;-79
2022/05/22 08:40:59;;;;;;;0.70;0.20;;;20.20;99.90;;;;;;5077911;28;20486;-76
2022/05/22 08:43:34;;;;;;;0.70;0.10;;;20.30;99.90;;;;;;5091563;28;20937;-77
2022/05/22 08:46:15;;;;;;;0.70;0.10;;;23.10;99.90;;;;;;5086501;28;20457;-77
2022/05/22 08:48:47;;;;;;;0.70;0.20;;;20.40;99.90;;;;;;5098114;28;20478;-76
2022/05/22 08:51:19;;;;;;;0.70;0.10;;;20.50;99.90;;;;;;5100600;28;20482;-76
2022/05/22 08:53:51;;;;;;;10.33;1.07;;;20.60;99.90;;;;;;5106261;28;20532;-77
2022/05/22 08:59:29;;;;;;;0.70;0.10;;;20.70;99.90;;;;;;5031968;28;20447;-77
2022/05/22 09:02:03;;;;;;;0.70;0.20;;;20.80;99.90;;;;;;5095295;28;20525;-77
2022/05/22 09:04:36;;;;;;;0.70;0.10;;;20.90;99.90;;;;;;5106472;28;20437;-75
2022/05/22 09:07:20;;;;;;;0.80;0.37;;;20.90;99.90;;;;;;5096120;28;20447;-76
2022/05/22 09:09:52;;;;;;;0.70;0.20;;;20.90;99.90;;;;;;5094695;28;20484;-76
2022/05/22 09:13:04;;;;;;;0.70;0.20;;;20.90;99.90;;;;;;5093476;28;20451;-75
2022/05/22 09:16:03;;;;;;;0.70;0.20;;;21.00;99.90;;;;;;5092935;28;20432;-74
2022/05/22 09:18:35;;;;;;;0.70;0.20;;;21.10;99.90;;;;;;5092119;28;20480;-76
2022/05/22 09:21:13;;;;;;;0.70;0.10;;;21.10;99.90;;;;;;5092337;28;20491;-75
2022/05/22 09:23:56;;;;;;;0.70;0.20;;;21.20;99.90;;;;;;5091493;28;20448;-76
2022/05/22 09:26:38;;;;;;;0.70;0.10;;;21.20;99.90;;;;;;5091249;28;20437;-76
2022/05/22 09:29:18;;;;;;;0.70;0.10;;;21.30;99.90;;;;;;5091469;28;20452;-77
2022/05/22 09:31:52;;;;;;;0.70;0.10;;;21.40;99.90;;;;;;5091251;28;20487;-76
2022/05/22 09:34:27;;;;;;;0.70;0.10;;;21.40;99.90;;;;;;5091923;28;20443;-75
2022/05/22 09:37:10;;;;;;;0.70;0.10;;;21.40;99.90;;;;;;5092101;28;20959;-76
2022/05/22 09:39:54;;;;;;;1.00;0.23;;;21.30;99.90;;;;;;5091734;28;20934;-75
2022/05/22 09:42:40;;;;;;;0.70;0.10;;;21.30;99.90;;;;;;5092570;28;20449;-75
2022/05/22 09:45:19;;;;;;;0.70;0.10;;;21.30;99.90;;;;;;5092060;28;20757;-74
2022/05/22 09:48:16;;;;;;;0.70;0.20;;;21.40;99.90;;;;;;5090774;28;20899;-73
2022/05/22 09:50:54;;;;;;;0.70;0.10;;;21.40;99.90;;;;;;5090773;28;20993;-75
2022/05/22 09:53:34;;;;;;;0.70;0.10;;;21.40;99.90;;;;;;5093344;28;20425;-76
2022/05/22 09:56:09;;;;;;;0.70;0.10;;;21.50;99.90;;;;;;5095512;28;20460;-75
2022/05/22 09:58:55;;;;;;;0.70;0.10;;;21.60;99.90;;;;;;5105942;28;21012;-75
2022/05/22 10:01:28;;;;;;;0.70;0.13;;;21.50;99.90;;;;;;5096051;28;20468;-76
2022/05/22 10:04:11;;;;;;;0.70;0.10;;;21.50;99.90;;;;;;5096532;28;20762;-76
2022/05/22 10:06:51;;;;;;;0.70;0.20;;;21.40;99.90;;;;;;5095952;28;20455;-77
2022/05/22 10:09:29;;;;;;;0.70;0.10;;;21.40;99.90;;;;;;5098878;28;20440;-79
2022/05/22 10:12:06;;;;;;;0.70;0.20;;;21.30;99.90;;;;;;5103973;28;20465;-79
2022/05/22 10:15:03;;;;;;;0.70;0.10;;;21.30;99.90;;;;;;5101614;28;20459;-78
2022/05/22 10:17:48;;;;;;;0.70;0.10;;;21.20;99.90;;;;;;5098829;28;20482;-78
2022/05/22 10:20:25;;;;;;;0.70;0.20;;;21.30;99.90;;;;;;5101435;28;20460;-78
2022/05/22 10:23:07;;;;;;;0.70;0.20;;;21.40;99.90;;;;;;5102076;28;20444;-80
2022/05/22 10:25:46;;;;;;;0.70;0.10;;;21.50;99.90;;;;;;5101129;28;20500;-76
2022/05/22 10:28:18;;;;;;;0.70;0.10;;;21.60;99.90;;;;;;5102057;28;20835;-79
2022/05/22 10:30:51;;;;;;;0.70;0.20;;;21.70;99.90;;;;;;5105247;28;20479;-78
2022/05/22 10:33:25;;;;;;;0.70;0.10;;;21.80;99.90;;;;;;5105758;28;20445;-77
2022/05/22 10:35:59;;;;;;;0.70;0.20;;;21.90;99.90;;;;;;5103062;28;20459;-79
2022/05/22 10:38:31;;;;;;;0.70;0.10;;;22.00;99.90;;;;;;5104504;28;20494;-78
2022/05/22 10:44:04;;;;;;;0.70;0.20;;;21.90;99.90;;;;;;5100608;28;20532;-79
2022/05/22 10:46:32;;;;;;;0.70;0.20;;;21.90;99.90;;;;;;5103816;28;20794;-79
2022/05/22 10:49:00;;;;;;;0.70;0.20;;;22.30;99.90;;;;;;5102544;28;20448;-79
2022/05/22 10:51:30;;;;;;;0.70;0.20;;;22.30;99.90;;;;;;5104718;28;20468;-78
2022/05/22 10:54:00;;;;;;;0.70;0.20;;;22.30;99.90;;;;;;5099184;28;20429;-77
2022/05/22 10:56:31;;;;;;;0.70;0.10;;;22.30;99.90;;;;;;5104922;28;20540;-78
2022/05/22 10:59:02;;;;;;;0.70;0.20;;;22.20;99.90;;;;;;5103911;28;20487;-79
2022/05/22 11:01:32;;;;;;;0.70;0.20;;;22.10;99.90;;;;;;5100737;28;20560;-77
2022/05/22 11:04:06;;;;;;;0.70;0.20;;;22.10;99.90;;;;;;5100329;28;20468;-78
2022/05/22 11:06:37;;;;;;;0.70;0.10;;;22.10;99.90;;;;;;5100121;28;20492;-76
2022/05/22 11:09:08;;;;;;;0.70;0.20;;;22.00;99.90;;;;;;5101024;28;20464;-76
2022/05/22 11:11:38;;;;;;;0.70;0.10;;;22.00;99.90;;;;;;5101732;28;20508;-78
2022/05/22 11:14:10;;;;;;;0.70;0.10;;;22.00;99.90;;;;;;5098202;28;20894;-77
2022/05/22 11:16:38;;;;;;;0.70;0.20;;;22.00;99.90;;;;;;5098441;28;20483;-78
2022/05/22 11:19:10;;;;;;;0.70;0.10;;;22.00;99.90;;;;;;5103654;28;20481;-80
2022/05/22 11:22:03;;;;;;;0.70;0.10;;;22.20;99.90;;;;;;5100242;28;20453;-80
2022/05/22 11:24:39;;;;;;;0.70;0.20;;;22.30;99.90;;;;;;5101432;28;20751;-78
2022/05/22 11:27:20;;;;;;;0.70;0.10;;;22.60;99.90;;;;;;5099074;28;20922;-78
2022/05/22 11:30:01;;;;;;;0.70;0.20;;;22.80;99.90;;;;;;5100929;28;20449;-80
2022/05/22 11:32:48;;;;;;;1.33;1.23;;;22.80;99.90;;;;;;5102799;28;20444;-80
2022/05/22 11:35:32;;;;;;;0.70;0.20;;;22.90;99.90;;;;;;5107125;28;20996;-79
2022/05/22 11:38:32;;;;;;;0.70;0.20;;;23.10;99.90;;;;;;5109554;28;20476;-80
2022/05/22 11:41:07;;;;;;;0.70;0.17;;;23.20;99.90;;;;;;5110906;28;20536;-80
2022/05/22 11:43:50;;;;;;;0.70;0.20;;;23.20;99.90;;;;;;5114871;28;20440;-79
2022/05/22 11:46:25;;;;;;;0.70;0.10;;;23.40;99.90;;;;;;5115074;28;20508;-79
2022/05/22 11:49:09;;;;;;;0.70;0.20;;;23.40;99.90;;;;;;5109841;28;20464;-80
2022/05/22 11:51:55;;;;;;;0.70;0.20;;;23.20;99.90;;;;;;5104409;28;20479;-79
2022/05/22 11:54:36;;;;;;;0.80;0.40;;;23.10;99.90;;;;;;5117126;28;20432;-79
2022/05/22 11:57:27;;;;;;;0.70;0.10;;;23.10;99.90;;;;;;5122716;28;20520;-80
2022/05/22 12:00:15;;;;;;;0.70;0.10;;;23.20;99.90;;;;;;5117642;28;20604;-80
2022/05/22 12:02:57;;;;;;;0.70;0.10;;;23.20;99.90;;;;;;5102747;28;20449;-81
2022/05/22 12:05:33;;;;;;;0.70;0.20;;;23.20;99.90;;;;;;5102726;28;20499;-80
2022/05/22 12:08:30;;;;;;;0.70;0.20;;;23.30;99.90;;;;;;5100107;28;20540;-79
2022/05/22 12:11:08;;;;;;;0.70;0.20;;;23.50;99.90;;;;;;5092008;28;20493;-80
2022/05/22 12:13:41;;;;;;;0.70;0.10;;;23.50;99.90;;;;;;5108315;28;20476;-80
2022/05/22 12:16:15;;;;;;;0.70;0.20;;;23.70;99.90;;;;;;5103257;28;20529;-80
2022/05/22 12:18:57;;;;;;;0.70;0.10;;;23.60;99.90;;;;;;5104332;28;20476;-79
2022/05/22 12:21:30;;;;;;;1.07;0.57;;;23.80;99.90;;;;;;5101981;28;20968;-80
2022/05/22 12:24:07;;;;;;;0.70;0.20;;;23.90;99.90;;;;;;5105536;28;20445;-79
2022/05/22 12:26:38;;;;;;;0.70;0.10;;;24.00;99.90;;;;;;5104735;28;20440;-80
2022/05/22 12:29:11;;;;;;;0.70;0.20;;;24.00;99.90;;;;;;5102133;28;20443;-80
2022/05/22 12:31:42;;;;;;;0.70;0.20;;;23.70;99.90;;;;;;5103151;28;20472;-79
2022/05/22 12:34:14;;;;;;;0.70;0.20;;;25.70;99.90;;;;;;5104886;28;20512;-81
2022/05/22 12:36:45;;;;;;;0.70;0.13;;;23.50;99.90;;;;;;5102133;28;20470;-79
2022/05/22 12:39:15;;;;;;;0.70;0.20;;;23.50;99.90;;;;;;5101215;28;20981;-80
2022/05/22 12:41:58;;;;;;;0.70;0.20;;;23.60;99.90;;;;;;5102878;28;20467;-81
2022/05/22 12:44:28;;;;;;;0.70;0.17;;;23.60;99.90;;;;;;5101472;28;20449;-77
2022/05/22 12:46:58;;;;;;;0.70;0.10;;;23.60;99.90;;;;;;5103187;28;20509;-79
2022/05/22 12:49:29;;;;;;;0.70;0.10;;;23.70;99.90;;;;;;5103406;28;20428;-79
2022/05/22 12:52:02;;;;;;;0.70;0.20;;;23.90;99.90;;;;;;5102968;28;20460;-80
2022/05/22 12:54:32;;;;;;;0.70;0.20;;;23.90;99.90;;;;;;5101459;28;20456;-81
2022/05/22 12:57:15;;;;;;;0.70;0.10;;;24.00;99.90;;;;;;5101172;28;20535;-79
2022/05/22 12:59:54;;;;;;;0.70;0.20;;;24.00;99.90;;;;;;5104365;28;20480;-79
2022/05/22 13:02:33;;;;;;;0.70;0.20;;;24.00;99.90;;;;;;5105612;28;20483;-80
2022/05/22 13:05:02;;;;;;;0.70;0.13;;;;;;;;;;5103529;28;20444;-80
2022/05/22 13:07:34;;;;;;;0.70;0.20;;;24.10;99.90;;;;;;5099608;28;20488;-78
2022/05/22 13:10:18;;;;;;;0.70;0.10;;;24.20;99.90;;;;;;5108876;28;20532;-81
2022/05/22 13:12:55;;;;;;;0.70;0.10;;;24.30;99.90;;;;;;5102458;28;20445;-79
2022/05/22 13:15:25;;;;;;;0.70;0.13;;;24.40;99.90;;;;;;5098932;28;20534;-79
2022/05/22 13:18:07;;;;;;;0.70;0.20;;;24.30;99.90;;;;;;5104758;28;20447;-79
2022/05/22 13:20:48;;;;;;;0.70;0.10;;;24.40;99.90;;;;;;5106641;28;20496;-80
2022/05/22 13:23:28;;;;;;;0.70;0.10;;;24.50;99.90;;;;;;5105643;28;20531;-78
2022/05/22 13:25:58;;;;;;;0.70;0.20;;;24.50;99.90;;;;;;5092765;28;20456;-81
2022/05/22 13:28:30;;;;;;;0.70;0.20;;;24.50;99.90;;;;;;5101502;28;21022;-80
2022/05/22 13:31:03;;;;;;;0.70;0.10;;;23.10;99.90;;;;;;5091679;28;20490;-80
2022/05/22 13:33:33;;;;;;;0.70;0.20;;;24.60;99.90;;;;;;5106548;28;20441;-80
2022/05/22 13:36:11;;;;;;;0.70;0.17;;;24.50;99.90;;;;;;5106190;28;20440;-80